Time;durP1;ratioP1;P1;durP2;ratioP2;P2;SDS_P1;SDS_P2;PMS_P1;PMS_P2;Temp;Humidity;BMP_temperature;BMP_pressure;BME280_temperature;BME280_humidity;BME280_pressure;Samples;Min_cycle;Max_cycle;Signal;HPM_P1;HPM_P2
2021/12/11 00:00:17;;;;;;;;;;;;;;;;;;2203850;67;1119;-70
2021/12/11 00:03:02;;;;;;;;;;;;;;;;;;2201388;59;1306;-71
2021/12/11 00:05:46;;;;;;;;;;;;;;;;;;2204816;59;1266;-70
2021/12/11 00:08:22;;;;;;;;;;;;;;;;;;2204823;67;1162;-71
2021/12/11 00:10:58;;;;;;;;;;;;;;;;;;2206107;67;1182;-71
2021/12/11 00:13:36;;;;;;;;;;;;;;;;;;2204997;59;1397;-70
2021/12/11 00:16:11;;;;;;;;;;;;;;;;;;2205098;67;1109;-70
2021/12/11 00:18:48;;;;;;;;;;;;;;;;;;2204479;67;1928;-70
2021/12/11 00:21:25;;;;;;;;;;;;;;;;;;2205945;59;1556;-70
2021/12/11 00:24:01;;;;;;;;;;;;;;;;;;2204635;59;1281;-70
2021/12/11 00:26:36;;;;;;;;;;;;;;;;;;2204741;67;1196;-72
2021/12/11 00:29:14;;;;;;;;;;;;;;;;;;2204821;67;1791;-70
2021/12/11 00:31:56;;;;;;;;;;;;;;;;;;2204321;59;1496;-70
2021/12/11 00:34:30;;;;;;;;;;;;;;;;;;2205113;67;1234;-70
2021/12/11 00:37:05;;;;;;;;;;;;;;;;;;2205262;67;1924;-71
2021/12/11 00:39:55;;;;;;;;;;;;;;;;;;2205462;67;1236;-71
2021/12/11 00:42:36;;;;;;;;;;;;;;;;;;2204463;67;1115;-71
2021/12/11 00:45:20;;;;;;;;;;;;;;;;;;2205588;67;1175;-70
2021/12/11 00:47:55;;;;;;;;;;;;;;;;;;2204284;59;1851;-71
2021/12/11 00:50:30;;;;;;;;;;;;;;;;;;2205016;59;1119;-70
2021/12/11 00:53:09;;;;;;;;;;;;;;;;;;2203537;67;1202;-70
2021/12/11 00:55:53;;;;;;;;;;;;;;;;;;2204953;67;1249;-70
2021/12/11 00:58:27;;;;;;;;;;;;;;;;;;2204160;67;1930;-70
2021/12/11 01:01:06;;;;;;;;;;;;;;;;;;2203655;67;1173;-70
2021/12/11 01:03:45;;;;;;;;;;;;;;;;;;2205024;59;1248;-70
2021/12/11 01:06:22;;;;;;;;;;;;;;;;;;2205365;67;1119;-71
2021/12/11 01:08:59;;;;;;;;;;;;;;;;;;2204834;67;1090;-70
2021/12/11 01:11:58;;;;;;;;;;;;;;;;;;2204472;59;1842;-69
2021/12/11 01:14:37;;;;;;;;;;;;;;;;;;2204901;67;1207;-70
2021/12/11 01:17:41;;;;;;;;;;;;;;;;;;;;;
2021/12/11 01:20:46;;;;;;;;;;;;;;;;;;2204745;59;1649;-70
2021/12/11 01:23:45;;;;;;;;;;;;;;;;;;2202351;59;1321;-70
2021/12/11 01:26:49;;;;;;;;;;;;;;;;;;2205220;67;1082;-70
2021/12/11 01:29:24;;;;;;;;;;;;;;;;;;2199169;59;1672;-70
2021/12/11 01:32:00;;;;;;;;;;;;;;;;;;2206048;59;1492;-70
2021/12/11 01:34:35;;;;;;;;;;;;;;;;;;2205443;67;1266;-70
2021/12/11 01:37:09;;;;;;;;;;;;;;;;;;2205362;67;1178;-70
2021/12/11 01:39:51;;;;;;;;;;;;;;;;;;2203901;67;1937;-69
2021/12/11 01:42:26;;;;;;;;;;;;;;;;;;2205781;67;1114;-69
2021/12/11 01:45:01;;;;;;;;;;;;;;;;;;2204437;67;1233;-70
2021/12/11 01:47:36;;;;;;;;;;;;;;;;;;2203902;67;1206;-70
2021/12/11 01:53:22;;;;;;;;;;;;;;;;;;2203856;59;1114;-69
2021/12/11 01:56:00;;;;;;;;;;;;;;;;;;2205704;67;1261;-70
2021/12/11 01:58:37;;;;;;;;;;;;;;;;;;2204334;59;1943;-70
2021/12/11 02:01:35;;;;;;;;;;;;;;;;;;2206389;67;1245;-70
2021/12/11 02:04:30;;;;;;;;;;;;;;;;;;2202938;59;1517;-70
2021/12/11 02:07:05;;;;;;;;;;;;;;;;;;2205860;67;1272;-70
2021/12/11 02:12:43;;;;;;;;;;;;;;;;;;2206643;59;1362;-70
2021/12/11 02:15:18;;;;;;;;;;;;;;;;;;2206465;67;1309;-70
2021/12/11 02:18:09;;;;;;;;;;;;;;;;;;2206938;67;1933;-70
2021/12/11 02:20:45;;;;;;;;;;;;;;;;;;2206341;59;1671;-70
2021/12/11 02:23:34;;;;;;;;;;;;;;;;;;2204768;59;1342;-69
2021/12/11 02:26:35;;;;;;;;;;;;;;;;;;2204944;67;1149;-70
2021/12/11 02:29:10;;;;;;;;;;;;;;;;;;2205307;59;1749;-70
2021/12/11 02:31:46;;;;;;;;;;;;;;;;;;2206309;59;1425;-69
2021/12/11 02:34:24;;;;;;;;;;;;;;;;;;2204769;67;1219;-70
2021/12/11 02:37:01;;;;;;;;;;;;;;;;;;2205557;67;1176;-69
2021/12/11 02:39:43;;;;;;;;;;;;;;;;;;2205147;59;1924;-70
2021/12/11 02:42:32;;;;;;;;;;;;;;;;;;;;;
2021/12/11 02:45:08;;;;;;;;;;;;;;;;;;2203866;59;1762;-69
2021/12/11 02:47:44;;;;;;;;;;;;;;;;;;2206078;67;1210;-69
2021/12/11 02:50:19;;;;;;;;;;;;;;;;;;2205330;59;1767;-70
2021/12/11 02:52:55;;;;;;;;;;;;;;;;;;2205222;67;1269;-70
2021/12/11 02:55:34;;;;;;;;;;;;;;;;;;2205718;67;1140;-69
2021/12/11 02:58:10;;;;;;;;;;;;;;;;;;2205775;67;1973;-70
2021/12/11 03:00:45;;;;;;;;;;;;;;;;;;2206373;67;1215;-70
2021/12/11 03:03:20;;;;;;;;;;;;;;;;;;2205472;67;1347;-70
2021/12/11 03:06:01;;;;;;;;;;;;;;;;;;2205409;67;1330;-70
2021/12/11 03:08:42;;;;;;;;;;;;;;;;;;2206497;67;1138;-70
2021/12/11 03:11:24;;;;;;;;;;;;;;;;;;2206130;59;1693;-70
2021/12/11 03:14:03;;;;;;;;;;;;;;;;;;2206743;59;1749;-70
2021/12/11 03:16:38;;;;;;;;;;;;;;;;;;2204505;67;1181;-70
2021/12/11 03:19:12;;;;;;;;;;;;;;;;;;2205352;59;1920;-70
2021/12/11 03:21:47;;;;;;;;;;;;;;;;;;2207139;59;1942;-70
2021/12/11 03:24:22;;;;;;;;;;;;;;;;;;2206709;59;1481;-69
2021/12/11 03:26:58;;;;;;;;;;;;;;;;;;2206356;67;1229;-69
2021/12/11 03:29:52;;;;;;;;;;;;;;;;;;2203690;59;1759;-69
2021/12/11 03:32:26;;;;;;;;;;;;;;;;;;2204877;59;1674;-71
2021/12/11 03:35:06;;;;;;;;;;;;;;;;;;2205814;67;1268;-69
2021/12/11 03:37:39;;;;;;;;;;;;;;;;;;2205212;67;1269;-69
2021/12/11 03:40:13;;;;;;;;;;;;;;;;;;2204465;67;1940;-69
2021/12/11 03:42:51;;;;;;;;;;;;;;;;;;2205869;67;1275;-69
2021/12/11 03:45:27;;;;;;;;;;;;;;;;;;2205694;67;1230;-70
2021/12/11 03:48:03;;;;;;;;;;;;;;;;;;2205076;67;1069;-69
2021/12/11 03:50:40;;;;;;;;;;;;;;;;;;2204609;67;1026;-70
2021/12/11 03:53:14;;;;;;;;;;;;;;;;;;2204365;67;1241;-70
2021/12/11 03:56:01;;;;;;;;;;;;;;;;;;2205279;59;1248;-69
2021/12/11 03:58:39;;;;;;;;;;;;;;;;;;2202810;59;1934;-69
2021/12/11 04:01:24;;;;;;;;;;;;;;;;;;2204515;67;1061;-69
2021/12/11 04:04:07;;;;;;;;;;;;;;;;;;2203318;54;3656;-69
2021/12/11 04:06:41;;;;;;;;;;;;;;;;;;2206799;59;1190;-69
2021/12/11 04:09:16;;;;;;;;;;;;;;;;;;2207156;59;1239;-69
2021/12/11 04:11:49;;;;;;;;;;;;;;;;;;2210055;59;1322;-69
2021/12/11 04:14:27;;;;;;;;;;;;;;;;;;2209621;67;1271;-69
2021/12/11 04:17:01;;;;;;;;;;;;;;;;;;2209703;59;1189;-69
2021/12/11 04:19:34;;;;;;;;;;;;;;;;;;2207833;59;1932;-69
2021/12/11 04:22:07;;;;;;;;;;;;;;;;;;2208264;59;1187;-69
2021/12/11 04:24:42;;;;;;;;;;;;;;;;;;2208390;59;1712;-68
2021/12/11 04:27:17;;;;;;;;;;;;;;;;;;2209157;67;1128;-69
2021/12/11 04:29:53;;;;;;;;;;;;;;;;;;2208916;59;1964;-68
2021/12/11 04:32:31;;;;;;;;;;;;;;;;;;2207335;59;1668;-69
2021/12/11 04:35:05;;;;;;;;;;;;;;;;;;2207914;67;1279;-69
2021/12/11 04:37:39;;;;;;;;;;;;;;;;;;2207344;67;1141;-69
2021/12/11 04:40:15;;;;;;;;;;;;;;;;;;2207626;59;1973;-69
2021/12/11 04:42:56;;;;;;;;;;;;;;;;;;2207721;67;1138;-69
2021/12/11 04:45:35;;;;;;;;;;;;;;;;;;2207240;67;1250;-69
2021/12/11 04:48:14;;;;;;;;;;;;;;;;;;2207626;59;1339;-70
2021/12/11 04:50:55;;;;;;;;;;;;;;;;;;2207582;59;1126;-68
2021/12/11 04:53:43;;;;;;;;;;;;;;;;;;2207417;67;1080;-69
2021/12/11 04:59:24;;;;;;;;;;;;;;;;;;2203197;67;1984;-69
2021/12/11 05:02:14;;;;;;;;;;;;;;;;;;2207328;59;1357;-69
2021/12/11 05:05:01;;;;;;;;;;;;;;;;;;2209532;59;1992;-69
2021/12/11 05:07:40;;;;;;;;;;;;;;;;;;2207819;59;1299;-69
2021/12/11 05:10:21;;;;;;;;;;;;;;;;;;2207592;67;1282;-69
2021/12/11 05:12:55;;;;;;;;;;;;;;;;;;2207480;59;1175;-69
2021/12/11 05:15:30;;;;;;;;;;;;;;;;;;2209184;59;1197;-69
2021/12/11 05:18:08;;;;;;;;;;;;;;;;;;2209411;59;1316;-69
2021/12/11 05:20:43;;;;;;;;;;;;;;;;;;2208196;59;1916;-69
2021/12/11 05:23:16;;;;;;;;;;;;;;;;;;2207364;59;1357;-68
2021/12/11 05:25:50;;;;;;;;;;;;;;;;;;2207025;67;1328;-69
2021/12/11 05:28:23;;;;;;;;;;;;;;;;;;2207009;67;1126;-69
2021/12/11 05:30:58;;;;;;;;;;;;;;;;;;2207750;59;1476;-69
2021/12/11 05:33:34;;;;;;;;;;;;;;;;;;2208517;67;1147;-69
2021/12/11 05:36:09;;;;;;;;;;;;;;;;;;2207728;67;1209;-68
2021/12/11 05:38:43;;;;;;;;;;;;;;;;;;2208488;67;1986;-69
2021/12/11 05:41:17;;;;;;;;;;;;;;;;;;2209171;59;1216;-69
2021/12/11 05:43:51;;;;;;;;;;;;;;;;;;2209722;67;1248;-69
2021/12/11 05:46:25;;;;;;;;;;;;;;;;;;2209090;67;1090;-69
2021/12/11 05:49:00;;;;;;;;;;;;;;;;;;2208465;67;1293;-69
2021/12/11 05:51:38;;;;;;;;;;;;;;;;;;2208551;59;1180;-69
2021/12/11 05:54:14;;;;;;;;;;;;;;;;;;2208306;67;1272;-68
2021/12/11 05:56:47;;;;;;;;;;;;;;;;;;2209674;66;1264;-69
2021/12/11 05:59:20;;;;;;;;;;;;;;;;;;2207709;59;1992;-69
2021/12/11 06:01:57;;;;;;;;;;;;;;;;;;2208660;67;1228;-69
2021/12/11 06:04:34;;;;;;;;;;;;;;;;;;2209642;59;1259;-69
2021/12/11 06:07:09;;;;;;;;;;;;;;;;;;2209085;59;1298;-69
2021/12/11 06:09:44;;;;;;;;;;;;;;;;;;2208386;67;1222;-69
2021/12/11 06:12:19;;;;;;;;;;;;;;;;;;2209368;59;1326;-69
2021/12/11 06:14:53;;;;;;;;;;;;;;;;;;2208900;67;1306;-69
2021/12/11 06:17:28;;;;;;;;;;;;;;;;;;2209794;67;1129;-69
2021/12/11 06:20:06;;;;;;;;;;;;;;;;;;2209760;59;1912;-69
2021/12/11 06:22:40;;;;;;;;;;;;;;;;;;2208573;59;1515;-69
2021/12/11 06:25:15;;;;;;;;;;;;;;;;;;2208354;67;1358;-69
2021/12/11 06:27:49;;;;;;;;;;;;;;;;;;2207744;59;1291;-69
2021/12/11 06:30:22;;;;;;;;;;;;;;;;;;2207649;59;1455;-69
2021/12/11 06:32:57;;;;;;;;;;;;;;;;;;2207699;67;1320;-69
2021/12/11 06:35:35;;;;;;;;;;;;;;;;;;2209404;67;1207;-69
2021/12/11 06:38:11;;;;;;;;;;;;;;;;;;2209351;59;1094;-69
2021/12/11 06:40:44;;;;;;;;;;;;;;;;;;2207699;59;2052;-69
2021/12/11 06:43:18;;;;;;;;;;;;;;;;;;2208244;59;1121;-68
2021/12/11 06:45:52;;;;;;;;;;;;;;;;;;2207858;59;1218;-69
2021/12/11 06:48:25;;;;;;;;;;;;;;;;;;2209139;67;1164;-69
2021/12/11 06:51:02;;;;;;;;;;;;;;;;;;2209221;67;1194;-68
2021/12/11 06:53:36;;;;;;;;;;;;;;;;;;2208710;67;1227;-68
2021/12/11 06:56:10;;;;;;;;;;;;;;;;;;2204860;67;1914;-69
2021/12/11 06:58:44;;;;;;;;;;;;;;;;;;2208174;67;1153;-69
2021/12/11 07:01:17;;;;;;;;;;;;;;;;;;2204753;59;1937;-69
2021/12/11 07:03:50;;;;;;;;;;;;;;;;;;2209850;67;1221;-69
2021/12/11 07:06:26;;;;;;;;;;;;;;;;;;2205345;59;1208;-69
2021/12/11 07:09:00;;;;;;;;;;;;;;;;;;2207838;59;1219;-69
2021/12/11 07:11:34;;;;;;;;;;;;;;;;;;2209381;59;1405;-69
2021/12/11 07:14:07;;;;;;;;;;;;;;;;;;2205752;67;1918;-69
2021/12/11 07:16:40;;;;;;;;;;;;;;;;;;2208740;67;1210;-69
2021/12/11 07:19:14;;;;;;;;;;;;;;;;;;2209420;59;1988;-69
2021/12/11 07:21:51;;;;;;;;;;;;;;;;;;2207782;59;1793;-69
2021/12/11 07:24:27;;;;;;;;;;;;;;;;;;2207588;59;1322;-69
2021/12/11 07:27:01;;;;;;;;;;;;;;;;;;2206049;67;1386;-69
2021/12/11 07:29:34;;;;;;;;;;;;;;;;;;2209535;59;1399;-68
2021/12/11 07:32:08;;;;;;;;;;;;;;;;;;2209069;59;1338;-69
2021/12/11 07:34:43;;;;;;;;;;;;;;;;;;2209568;67;1271;-69
2021/12/11 07:37:19;;;;;;;;;;;;;;;;;;2204767;67;1179;-69
2021/12/11 07:39:52;;;;;;;;;;;;;;;;;;2209374;67;1984;-69
2021/12/11 07:42:25;;;;;;;;;;;;;;;;;;2209543;67;1161;-69
2021/12/11 07:44:58;;;;;;;;;;;;;;;;;;2204058;67;1224;-69
2021/12/11 07:47:31;;;;;;;;;;;;;;;;;;2208255;59;1183;-69
2021/12/11 07:50:06;;;;;;;;;;;;;;;;;;2209127;59;1185;-69
2021/12/11 07:52:42;;;;;;;;;;;;;;;;;;2207392;67;1262;-69
2021/12/11 07:55:16;;;;;;;;;;;;;;;;;;2208324;67;1289;-69
2021/12/11 07:57:49;;;;;;;;;;;;;;;;;;2208015;67;1304;-69
2021/12/11 08:00:25;;;;;;;;;;;;;;;;;;2209243;67;1937;-69
2021/12/11 08:02:58;;;;;;;;;;;;;;;;;;2209162;59;1218;-69
2021/12/11 08:05:31;;;;;;;;;;;;;;;;;;2208639;59;1267;-69
2021/12/11 08:08:09;;;;;;;;;;;;;;;;;;2207985;59;1740;-69
2021/12/11 08:10:46;;;;;;;;;;;;;;;;;;2208401;67;1078;-69
2021/12/11 08:13:19;;;;;;;;;;;;;;;;;;2207768;59;1476;-69
2021/12/11 08:15:54;;;;;;;;;;;;;;;;;;2203430;67;1894;-69
2021/12/11 08:18:28;;;;;;;;;;;;;;;;;;2208874;59;1427;-69
2021/12/11 08:21:02;;;;;;;;;;;;;;;;;;2208239;59;1939;-69
2021/12/11 08:23:43;;;;;;;;;;;;;;;;;;2208340;59;1431;-69
2021/12/11 08:26:20;;;;;;;;;;;;;;;;;;2207346;67;1305;-69
2021/12/11 08:28:53;;;;;;;;;;;;;;;;;;2208595;59;1291;-69
2021/12/11 08:31:27;;;;;;;;;;;;;;;;;;2207326;59;1476;-69
2021/12/11 08:34:00;;;;;;;;;;;;;;;;;;2207193;67;1254;-69
2021/12/11 08:36:33;;;;;;;;;;;;;;;;;;2208604;67;1193;-69
2021/12/11 08:39:10;;;;;;;;;;;;;;;;;;2209154;67;1272;-69
2021/12/11 08:41:45;;;;;;;;;;;;;;;;;;2207760;67;1929;-69
2021/12/11 08:44:18;;;;;;;;;;;;;;;;;;2207356;67;1348;-69
2021/12/11 08:46:52;;;;;;;;;;;;;;;;;;2208493;67;1103;-69
2021/12/11 08:49:27;;;;;;;;;;;;;;;;;;2207955;67;1102;-69
2021/12/11 08:52:02;;;;;;;;;;;;;;;;;;2206999;67;1021;-69
2021/12/11 08:54:38;;;;;;;;;;;;;;;;;;2206845;59;1715;-69
2021/12/11 08:57:13;;;;;;;;;;;;;;;;;;2207247;59;1198;-69
2021/12/11 08:59:49;;;;;;;;;;;;;;;;;;2208512;67;1136;-69
2021/12/11 09:02:25;;;;;;;;;;;;;;;;;;2209675;59;1342;-69
2021/12/11 09:05:00;;;;;;;;;;;;;;;;;;2207604;59;1278;-69
2021/12/11 09:07:36;;;;;;;;;;;;;;;;;;2208236;59;1345;-69
2021/12/11 09:10:14;;;;;;;;;;;;;;;;;;2209058;59;1225;-69
2021/12/11 09:12:49;;;;;;;;;;;;;;;;;;2207990;59;1164;-69
2021/12/11 09:15:24;;;;;;;;;;;;;;;;;;2207355;59;1291;-69
2021/12/11 09:17:59;;;;;;;;;;;;;;;;;;2205394;59;1398;-69
2021/12/11 09:20:37;;;;;;;;;;;;;;;;;;2209248;59;1976;-69
2021/12/11 09:23:13;;;;;;;;;;;;;;;;;;2208954;59;1380;-69
2021/12/11 09:25:50;;;;;;;;;;;;;;;;;;2207146;59;1305;-69
2021/12/11 09:28:27;;;;;;;;;;;;;;;;;;2209050;59;1744;-69
2021/12/11 09:31:04;;;;;;;;;;;;;;;;;;2208881;59;1733;-69
2021/12/11 09:33:39;;;;;;;;;;;;;;;;;;2209393;59;1779;-69
2021/12/11 09:36:14;;;;;;;;;;;;;;;;;;2208310;67;1224;-69
2021/12/11 09:38:49;;;;;;;;;;;;;;;;;;2207039;67;1325;-69
2021/12/11 09:41:24;;;;;;;;;;;;;;;;;;2207727;67;1935;-69
2021/12/11 09:44:02;;;;;;;;;;;;;;;;;;2209597;67;1252;-68
2021/12/11 09:46:38;;;;;;;;;;;;;;;;;;2207242;67;1260;-69
2021/12/11 09:49:12;;;;;;;;;;;;;;;;;;2207273;67;1194;-69
2021/12/11 09:51:46;;;;;;;;;;;;;;;;;;2207391;59;1310;-69
2021/12/11 09:54:21;;;;;;;;;;;;;;;;;;2208131;59;1773;-70
2021/12/11 09:56:57;;;;;;;;;;;;;;;;;;2208756;59;1084;-70
2021/12/11 09:59:34;;;;;;;;;;;;;;;;;;2205700;59;1545;-69
2021/12/11 10:02:11;;;;;;;;;;;;;;;;;;2207431;59;2261;-69
2021/12/11 10:04:47;;;;;;;;;;;;;;;;;;2207219;59;1235;-69
2021/12/11 10:07:30;;;;;;;;;;;;;;;;;;2208228;59;1512;-70
2021/12/11 10:10:09;;;;;;;;;;;;;;;;;;2208592;59;2323;-69
2021/12/11 10:12:47;;;;;;;;;;;;;;;;;;2209474;59;1776;-69
2021/12/11 10:15:24;;;;;;;;;;;;;;;;;;2209613;67;1242;-68
2021/12/11 10:18:01;;;;;;;;;;;;;;;;;;2208572;59;1391;-69
2021/12/11 10:20:36;;;;;;;;;;;;;;;;;;2209201;59;1940;-69
2021/12/11 10:23:12;;;;;;;;;;;;;;;;;;2209794;59;1140;-69
2021/12/11 10:25:46;;;;;;;;;;;;;;;;;;2208329;59;1246;-69
2021/12/11 10:28:23;;;;;;;;;;;;;;;;;;2210076;59;1199;-69
2021/12/11 10:31:00;;;;;;;;;;;;;;;;;;2209894;59;1533;-69
2021/12/11 10:33:34;;;;;;;;;;;;;;;;;;2208991;59;1293;-69
2021/12/11 10:36:10;;;;;;;;;;;;;;;;;;2209071;59;1822;-69
2021/12/11 10:38:43;;;;;;;;;;;;;;;;;;2209625;53;3668;-71
2021/12/11 10:41:17;;;;;;;;;;;;;;;;;;2203708;59;1989;-69
2021/12/11 10:43:53;;;;;;;;;;;;;;;;;;2205611;59;1339;-68
2021/12/11 10:46:31;;;;;;;;;;;;;;;;;;2207318;59;1776;-69
2021/12/11 10:49:05;;;;;;;;;;;;;;;;;;2205957;59;1226;-69
2021/12/11 10:51:43;;;;;;;;;;;;;;;;;;2205732;59;1220;-69
2021/12/11 10:54:17;;;;;;;;;;;;;;;;;;2208344;59;1913;-69
2021/12/11 10:56:51;;;;;;;;;;;;;;;;;;2210343;67;1356;-69
2021/12/11 10:59:26;;;;;;;;;;;;;;;;;;2209868;59;1259;-69
2021/12/11 11:02:04;;;;;;;;;;;;;;;;;;2207066;59;2618;-69
2021/12/11 11:04:40;;;;;;;;;;;;;;;;;;2209034;59;2330;-69
2021/12/11 11:07:13;;;;;;;;;;;;;;;;;;2208773;59;1293;-69
2021/12/11 11:09:47;;;;;;;;;;;;;;;;;;2208606;59;1278;-69
2021/12/11 11:12:22;;;;;;;;;;;;;;;;;;2209499;59;1285;-69
2021/12/11 11:14:56;;;;;;;;;;;;;;;;;;2206207;67;1448;-68
2021/12/11 11:17:34;;;;;;;;;;;;;;;;;;2210723;67;1253;-69
2021/12/11 11:20:08;;;;;;;;;;;;;;;;;;2209934;59;1715;-68
2021/12/11 11:22:42;;;;;;;;;;;;;;;;;;2210526;59;1929;-69
2021/12/11 11:25:18;;;;;;;;;;;;;;;;;;2204667;67;1664;-68
2021/12/11 11:27:56;;;;;;;;;;;;;;;;;;2209316;59;1684;-69
2021/12/11 11:30:32;;;;;;;;;;;;;;;;;;2209097;59;1437;-69
2021/12/11 11:33:08;;;;;;;;;;;;;;;;;;2208963;59;1891;-69
2021/12/11 11:35:43;;;;;;;;;;;;;;;;;;2205475;67;1497;-69
2021/12/11 11:38:18;;;;;;;;;;;;;;;;;;2209252;59;1217;-69
2021/12/11 11:40:55;;;;;;;;;;;;;;;;;;2207804;59;1923;-69
2021/12/11 11:43:28;;;;;;;;;;;;;;;;;;2208578;59;1446;-69
2021/12/11 11:46:01;;;;;;;;;;;;;;;;;;2209163;59;1688;-69
2021/12/11 11:48:41;;;;;;;;;;;;;;;;;;2207855;59;1228;-69
2021/12/11 11:51:16;;;;;;;;;;;;;;;;;;2205806;59;1348;-69
2021/12/11 11:53:49;;;;;;;;;;;;;;;;;;2205696;59;1762;-69
2021/12/11 11:56:24;;;;;;;;;;;;;;;;;;2208205;59;1777;-69
2021/12/11 11:58:58;;;;;;;;;;;;;;;;;;2206947;59;1195;-69
2021/12/11 12:01:36;;;;;;;;;;;;;;;;;;2207321;59;1921;-69
2021/12/11 12:04:15;;;;;;;;;;;;;;;;;;2207489;59;2481;-69
2021/12/11 12:06:54;;;;;;;;;;;;;;;;;;2208183;59;1313;-69
2021/12/11 12:09:28;;;;;;;;;;;;;;;;;;2209011;59;2180;-69
2021/12/11 12:12:02;;;;;;;;;;;;;;;;;;2208185;59;1196;-69
2021/12/11 12:14:36;;;;;;;;;;;;;;;;;;2208156;59;1247;-69
2021/12/11 12:17:10;;;;;;;;;;;;;;;;;;2207818;59;1122;-69
2021/12/11 12:19:46;;;;;;;;;;;;;;;;;;2208895;59;1479;-70
2021/12/11 12:22:20;;;;;;;;;;;;;;;;;;2208440;59;1987;-70
2021/12/11 12:24:55;;;;;;;;;;;;;;;;;;2210534;67;1241;-69
2021/12/11 12:27:30;;;;;;;;;;;;;;;;;;2208289;67;1192;-69
2021/12/11 12:30:04;;;;;;;;;;;;;;;;;;2208836;59;1483;-69
2021/12/11 12:32:38;;;;;;;;;;;;;;;;;;2208212;67;1202;-69
2021/12/11 12:35:16;;;;;;;;;;;;;;;;;;2207880;59;1829;-70
2021/12/11 12:37:50;;;;;;;;;;;;;;;;;;2209037;59;1737;-69
2021/12/11 12:40:28;;;;;;;;;;;;;;;;;;2208615;59;1564;-69
2021/12/11 12:43:11;;;;;;;;;;;;;;;;;;2209628;59;1932;-69
2021/12/11 12:45:46;;;;;;;;;;;;;;;;;;2210019;67;1264;-69
2021/12/11 12:48:21;;;;;;;;;;;;;;;;;;2210800;67;1215;-69
2021/12/11 12:51:00;;;;;;;;;;;;;;;;;;2209843;59;1161;-69
2021/12/11 12:53:34;;;;;;;;;;;;;;;;;;2206052;59;1813;-69
2021/12/11 12:56:08;;;;;;;;;;;;;;;;;;2209575;67;1080;-69
2021/12/11 12:58:44;;;;;;;;;;;;;;;;;;2208676;67;1285;-69
2021/12/11 13:01:20;;;;;;;;;;;;;;;;;;2209874;59;1946;-69
2021/12/11 13:03:55;;;;;;;;;;;;;;;;;;2208904;59;2246;-68
2021/12/11 13:06:34;;;;;;;;;;;;;;;;;;2208449;59;2290;-69
2021/12/11 13:09:10;;;;;;;;;;;;;;;;;;2207986;59;1230;-69
2021/12/11 13:11:44;;;;;;;;;;;;;;;;;;2209807;59;1344;-69
2021/12/11 13:14:18;;;;;;;;;;;;;;;;;;2208409;59;1111;-69
2021/12/11 13:16:53;;;;;;;;;;;;;;;;;;2208577;67;1069;-69
2021/12/11 13:19:29;;;;;;;;;;;;;;;;;;2208878;59;1672;-69
2021/12/11 13:22:10;;;;;;;;;;;;;;;;;;2208529;59;1926;-68
2021/12/11 13:24:48;;;;;;;;;;;;;;;;;;2208676;67;1264;-69
2021/12/11 13:27:23;;;;;;;;;;;;;;;;;;2208414;59;1181;-69
2021/12/11 13:29:58;;;;;;;;;;;;;;;;;;2208006;59;1424;-69
2021/12/11 13:32:33;;;;;;;;;;;;;;;;;;2208473;67;1082;-69
2021/12/11 13:35:09;;;;;;;;;;;;;;;;;;2208149;59;1822;-69
2021/12/11 13:37:45;;;;;;;;;;;;;;;;;;2209348;59;1345;-69
2021/12/11 13:40:20;;;;;;;;;;;;;;;;;;2209479;59;1126;-69
2021/12/11 13:42:54;;;;;;;;;;;;;;;;;;2208209;59;1925;-69
2021/12/11 13:45:28;;;;;;;;;;;;;;;;;;2209449;67;1118;-69
2021/12/11 13:48:02;;;;;;;;;;;;;;;;;;2208513;59;1218;-69
2021/12/11 13:50:37;;;;;;;;;;;;;;;;;;2209333;59;1252;-69
2021/12/11 13:53:13;;;;;;;;;;;;;;;;;;2208774;59;1843;-69
2021/12/11 13:55:47;;;;;;;;;;;;;;;;;;2208129;59;1336;-69
2021/12/11 13:58:20;;;;;;;;;;;;;;;;;;2209455;59;2189;-69
2021/12/11 14:00:54;;;;;;;;;;;;;;;;;;2209012;59;1443;-69
2021/12/11 14:03:28;;;;;;;;;;;;;;;;;;2206460;59;1928;-69
2021/12/11 14:06:04;;;;;;;;;;;;;;;;;;2208167;59;3153;-68
2021/12/11 14:08:40;;;;;;;;;;;;;;;;;;2208192;67;1278;-69
2021/12/11 14:11:14;;;;;;;;;;;;;;;;;;2209349;59;1344;-69
2021/12/11 14:13:47;;;;;;;;;;;;;;;;;;2208347;59;1569;-69
2021/12/11 14:16:22;;;;;;;;;;;;;;;;;;2208515;67;1175;-69
2021/12/11 14:18:56;;;;;;;;;;;;;;;;;;2210515;59;1400;-69
2021/12/11 14:21:29;;;;;;;;;;;;;;;;;;2211146;59;1631;-69
2021/12/11 14:24:06;;;;;;;;;;;;;;;;;;2209702;59;1923;-69
2021/12/11 14:26:39;;;;;;;;;;;;;;;;;;2209274;67;1032;-70
2021/12/11 14:29:13;;;;;;;;;;;;;;;;;;2210103;59;1437;-69
2021/12/11 14:31:46;;;;;;;;;;;;;;;;;;2208637;59;1300;-69
2021/12/11 14:34:19;;;;;;;;;;;;;;;;;;2209881;67;1240;-69
2021/12/11 14:36:54;;;;;;;;;;;;;;;;;;2210603;67;1130;-69
2021/12/11 14:39:30;;;;;;;;;;;;;;;;;;2209662;59;1242;-69
2021/12/11 14:42:03;;;;;;;;;;;;;;;;;;2209467;59;1944;-69
2021/12/11 14:44:36;;;;;;;;;;;;;;;;;;2205743;67;1395;-69
2021/12/11 14:47:11;;;;;;;;;;;;;;;;;;2209640;59;1102;-69
2021/12/11 14:49:45;;;;;;;;;;;;;;;;;;2208428;59;1402;-69
2021/12/11 14:52:20;;;;;;;;;;;;;;;;;;2209695;59;1708;-69
2021/12/11 14:54:58;;;;;;;;;;;;;;;;;;2209717;59;1745;-69
2021/12/11 14:57:31;;;;;;;;;;;;;;;;;;2210256;59;1133;-69
2021/12/11 15:00:09;;;;;;;;;;;;;;;;;;2210322;67;1199;-69
2021/12/11 15:02:44;;;;;;;;;;;;;;;;;;2209121;59;1940;-69
2021/12/11 15:05:18;;;;;;;;;;;;;;;;;;2209048;67;2579;-69
2021/12/11 15:07:51;;;;;;;;;;;;;;;;;;2208931;59;2698;-69
2021/12/11 15:10:29;;;;;;;;;;;;;;;;;;2208431;59;1768;-69
2021/12/11 15:13:02;;;;;;;;;;;;;;;;;;2207794;59;1289;-67
2021/12/11 15:15:37;;;;;;;;;;;;;;;;;;2207748;60;1204;-67
2021/12/11 15:18:10;;;;;;;;;;;;;;;;;;2206539;59;2496;-67
2021/12/11 15:20:45;;;;;;;;;;;;;;;;;;2208980;67;1904;-67
2021/12/11 15:23:19;;;;;;;;;;;;;;;;;;2209144;59;1939;-68
2021/12/11 15:25:56;;;;;;;;;;;;;;;;;;2207440;59;1866;-67
2021/12/11 15:28:30;;;;;;;;;;;;;;;;;;2210006;59;1792;-68
2021/12/11 15:31:06;;;;;;;;;;;;;;;;;;2204624;59;1920;-67
2021/12/11 15:33:40;;;;;;;;;;;;;;;;;;2207875;59;1778;-67
2021/12/11 15:36:13;;;;;;;;;;;;;;;;;;2208734;67;1248;-67
2021/12/11 15:38:48;;;;;;;;;;;;;;;;;;2207768;59;1246;-67
2021/12/11 15:41:24;;;;;;;;;;;;;;;;;;2209131;59;1090;-67
2021/12/11 15:43:59;;;;;;;;;;;;;;;;;;2209830;59;1998;-67
2021/12/11 15:46:33;;;;;;;;;;;;;;;;;;2209277;67;1161;-67
2021/12/11 15:49:07;;;;;;;;;;;;;;;;;;2208136;67;1585;-67
2021/12/11 15:51:41;;;;;;;;;;;;;;;;;;2209188;67;1078;-69
2021/12/11 15:54:14;;;;;;;;;;;;;;;;;;2208300;67;1106;-68
2021/12/11 15:56:52;;;;;;;;;;;;;;;;;;2210668;59;1117;-68
2021/12/11 15:59:25;;;;;;;;;;;;;;;;;;2209590;59;1242;-68
2021/12/11 16:02:03;;;;;;;;;;;;;;;;;;2206014;59;1258;-68
2021/12/11 16:04:37;;;;;;;;;;;;;;;;;;2209223;67;1941;-67
2021/12/11 16:07:11;;;;;;;;;;;;;;;;;;2208182;59;2565;-68
2021/12/11 16:09:45;;;;;;;;;;;;;;;;;;2208339;59;2334;-67
2021/12/11 16:12:22;;;;;;;;;;;;;;;;;;2209790;59;1374;-68
2021/12/11 16:14:56;;;;;;;;;;;;;;;;;;2209319;59;1901;-70
2021/12/11 16:17:29;;;;;;;;;;;;;;;;;;2209282;67;1294;-69
2021/12/11 16:20:03;;;;;;;;;;;;;;;;;;2209604;59;1638;-70
2021/12/11 16:22:40;;;;;;;;;;;;;;;;;;2207945;59;1988;-70
2021/12/11 16:25:18;;;;;;;;;;;;;;;;;;2208362;59;1744;-67
2021/12/11 16:27:56;;;;;;;;;;;;;;;;;;2209708;67;1289;-67
2021/12/11 16:30:31;;;;;;;;;;;;;;;;;;2209214;59;1754;-68
2021/12/11 16:33:04;;;;;;;;;;;;;;;;;;2207922;59;1212;-70
2021/12/11 16:35:37;;;;;;;;;;;;;;;;;;2208639;59;1104;-70
2021/12/11 16:38:13;;;;;;;;;;;;;;;;;;2205367;59;1244;-70
2021/12/11 16:40:49;;;;;;;;;;;;;;;;;;2208814;59;1149;-70
2021/12/11 16:43:24;;;;;;;;;;;;;;;;;;2208188;59;1925;-70
2021/12/11 16:45:58;;;;;;;;;;;;;;;;;;2204620;67;1828;-70
2021/12/11 16:48:33;;;;;;;;;;;;;;;;;;2209501;59;1708;-69
2021/12/11 16:51:09;;;;;;;;;;;;;;;;;;2204860;59;3702;-69
2021/12/11 16:53:50;;;;;;;;;;;;;;;;;;2206327;59;1130;-69
2021/12/11 16:56:25;;;;;;;;;;;;;;;;;;2208580;59;2590;-69
2021/12/11 16:58:59;;;;;;;;;;;;;;;;;;2211384;59;1705;-68
2021/12/11 17:01:34;;;;;;;;;;;;;;;;;;2205117;59;2526;-69
2021/12/11 17:04:08;;;;;;;;;;;;;;;;;;2204863;59;2567;-69
2021/12/11 17:06:55;;;;;;;;;;;;;;;;;;2205807;59;2489;-68
2021/12/11 17:09:35;;;;;;;;;;;;;;;;;;2205785;59;2296;-69
2021/12/11 17:12:10;;;;;;;;;;;;;;;;;;2205212;59;2018;-69
2021/12/11 17:14:43;;;;;;;;;;;;;;;;;;2206607;67;1108;-69
2021/12/11 17:17:17;;;;;;;;;;;;;;;;;;2204197;67;2509;-69
2021/12/11 17:19:50;;;;;;;;;;;;;;;;;;2206057;59;1763;-70
2021/12/11 17:22:24;;;;;;;;;;;;;;;;;;2204061;59;1776;-69
2021/12/11 17:25:01;;;;;;;;;;;;;;;;;;2206005;59;1940;-69
2021/12/11 17:27:34;;;;;;;;;;;;;;;;;;2202895;67;1787;-69
2021/12/11 17:30:09;;;;;;;;;;;;;;;;;;2200950;59;1780;-69
2021/12/11 17:32:46;;;;;;;;;;;;;;;;;;2204782;67;2380;-69
2021/12/11 17:35:19;;;;;;;;;;;;;;;;;;2205249;67;1071;-69
2021/12/11 17:37:53;;;;;;;;;;;;;;;;;;2203524;59;2002;-69
2021/12/11 17:40:30;;;;;;;;;;;;;;;;;;2204600;67;1856;-70
2021/12/11 17:43:03;;;;;;;;;;;;;;;;;;2206098;67;2947;-69
2021/12/11 17:45:39;;;;;;;;;;;;;;;;;;2207102;67;1202;-68
2021/12/11 17:48:15;;;;;;;;;;;;;;;;;;2206089;67;1859;-69
2021/12/11 17:50:49;;;;;;;;;;;;;;;;;;2205331;59;1730;-69
2021/12/11 17:53:22;;;;;;;;;;;;;;;;;;2204863;59;1915;-69
2021/12/11 17:56:00;;;;;;;;;;;;;;;;;;2205083;67;1209;-69
2021/12/11 17:58:35;;;;;;;;;;;;;;;;;;2204922;59;1806;-69
2021/12/11 18:01:10;;;;;;;;;;;;;;;;;;2205299;59;2217;-69
2021/12/11 18:03:44;;;;;;;;;;;;;;;;;;2205120;59;3483;-69
2021/12/11 18:06:19;;;;;;;;;;;;;;;;;;2205476;59;2655;-70
2021/12/11 18:08:53;;;;;;;;;;;;;;;;;;2204695;59;2416;-69
2021/12/11 18:11:33;;;;;;;;;;;;;;;;;;2204459;59;2289;-70
2021/12/11 18:14:09;;;;;;;;;;;;;;;;;;2204628;67;1091;-69